Time;durP1;ratioP1;P1;durP2;ratioP2;P2;SDS_P1;SDS_P2;PMS_P1;PMS_P2;Temp;Humidity;BMP_temperature;BMP_pressure;BME280_temperature;BME280_humidity;BME280_pressure;Samples;Min_cycle;Max_cycle;Signal;HPM_P1;HPM_P2
2021/10/23 00:00:35;;;;;;;18.05;8.18;;;;;;;8.14;87.03;102148.94;5054740;28;20493;-66
2021/10/23 00:03:02;;;;;;;20.10;7.82;;;;;;;8.16;87.17;102141.75;5054713;28;20045;-65
2021/10/23 00:05:29;;;;;;;19.65;7.60;;;;;;;8.10;87.34;102150.09;5035550;28;20044;-66
2021/10/23 00:07:56;;;;;;;24.42;8.02;;;;;;;8.18;86.77;102161.00;5055255;28;20048;-65
2021/10/23 00:10:22;;;;;;;25.45;8.43;;;;;;;8.10;87.70;102163.31;5027487;28;20049;-65
2021/10/23 00:12:49;;;;;;;23.55;7.63;;;;;;;8.12;88.06;102160.56;5054213;28;20583;-65
2021/10/23 00:15:16;;;;;;;20.40;7.78;;;;;;;8.06;87.95;102162.69;5054749;28;20045;-66
2021/10/23 00:17:43;;;;;;;21.35;8.23;;;;;;;8.03;88.45;102160.22;5040671;28;20037;-65
2021/10/23 00:20:10;;;;;;;21.70;8.93;;;;;;;8.19;87.61;102164.50;5054502;28;20382;-65
2021/10/23 00:22:37;;;;;;;23.92;8.43;;;;;;;8.18;87.61;102160.16;5053090;28;20098;-65
2021/10/23 00:25:04;;;;;;;22.95;9.25;;;;;;;8.24;87.24;102160.59;5054158;28;20040;-66
2021/10/23 00:27:31;;;;;;;24.60;9.20;;;;;;;8.23;87.34;102166.81;5054446;28;20040;-66
2021/10/23 00:29:59;;;;;;;20.98;8.57;;;;;;;8.12;87.98;102168.50;5039472;28;20489;-65
2021/10/23 00:32:27;;;;;;;22.10;9.00;;;;;;;8.21;87.84;102168.72;5065257;28;20041;-66
2021/10/23 00:34:54;;;;;;;21.17;10.02;;;;;;;8.19;87.54;102172.44;5052605;28;20045;-65
2021/10/23 00:37:21;;;;;;;27.63;10.43;;;;;;;8.14;87.95;102172.72;5036782;28;20051;-65
2021/10/23 00:39:47;;;;;;;24.33;10.25;;;;;;;8.26;87.30;102185.13;5054010;28;20115;-65
2021/10/23 00:42:14;;;;;;;20.85;9.65;;;;;;;8.20;87.56;102182.03;5043371;28;20049;-65
2021/10/23 00:44:43;;;;;;;22.98;10.02;;;;;;;8.19;87.75;102185.66;5054107;28;20091;-65
2021/10/23 00:47:16;;;;;;;20.85;11.07;;;;;;;8.24;87.51;102181.75;5069688;28;20072;-65
2021/10/23 00:49:46;;;;;;;30.02;11.93;;;;;;;8.19;87.40;102188.28;5054228;28;20591;-65
2021/10/23 00:52:13;;;;;;;22.05;11.32;;;;;;;8.15;88.31;102192.94;5052126;28;20044;-65
2021/10/23 00:54:40;;;;;;;23.23;11.55;;;;;;;8.17;88.09;102198.13;5000547;28;20111;-65
2021/10/23 00:57:07;;;;;;;32.75;13.38;;;;;;;8.18;88.17;102199.81;5050062;28;20355;-65
2021/10/23 00:59:34;;;;;;;25.40;12.25;;;;;;;8.05;88.08;102197.13;5034435;28;20045;-65
2021/10/23 01:02:03;;;;;;;25.83;12.20;;;;;;;8.23;87.60;102205.63;5034194;28;20046;-65
2021/10/23 01:04:32;;;;;;;26.45;12.10;;;;;;;8.19;87.65;102207.63;5032470;28;20525;-65
2021/10/23 01:06:58;;;;;;;26.33;13.27;;;;;;;8.18;87.59;102203.28;5034061;28;20084;-65
2021/10/23 01:09:25;;;;;;;26.23;13.18;;;;;;;8.13;87.86;102207.19;5016496;28;20398;-65
2021/10/23 01:11:53;;;;;;;27.17;13.45;;;;;;;8.27;87.40;102207.13;5033465;28;20045;-65
2021/10/23 01:14:22;;;;;;;30.95;13.43;;;;;;;8.41;87.06;102198.25;5024449;28;20453;-65
2021/10/23 01:16:51;;;;;;;31.85;13.75;;;;;;;8.23;87.50;102198.53;5026074;28;20084;-65
2021/10/23 01:19:18;;;;;;;32.22;14.43;;;;;;;8.13;88.08;102212.47;5033657;28;20042;-65
2021/10/23 01:21:48;;;;;;;31.52;13.27;;;;;;;8.15;88.34;102202.63;5005914;28;20073;-65
2021/10/23 01:24:15;;;;;;;29.65;14.02;;;;;;;8.14;88.11;102201.81;5033327;28;20414;-65
2021/10/23 01:26:42;;;;;;;29.05;14.52;;;;;;;8.28;87.55;102214.09;5033491;28;20041;-65
2021/10/23 01:29:13;;;;;;;25.13;13.93;;;;;;;8.23;87.64;102208.28;5033529;28;20042;-65
2021/10/23 01:31:42;;;;;;;39.92;14.45;;;;;;;8.39;87.10;102216.03;5033099;28;20136;-65
2021/10/23 01:34:14;;;;;;;30.30;13.30;;;;;;;8.25;87.22;102196.63;5031357;28;20041;-65
2021/10/23 01:36:42;;;;;;;;;;;;;;;8.23;87.36;102211.75;5016266;28;20095;-65
2021/10/23 01:39:08;;;;;;;32.42;14.30;;;;;;;8.23;87.57;102206.47;5033123;28;19967;-65
2021/10/23 01:41:35;;;;;;;32.53;14.05;;;;;;;8.24;87.61;102199.38;5033279;28;20041;-65
2021/10/23 01:44:02;;;;;;;29.05;14.00;;;;;;;8.22;87.62;102204.78;5015298;28;20053;-67
2021/10/23 01:46:29;;;;;;;27.77;14.40;;;;;;;8.30;87.23;102195.50;5015235;28;20038;-66
2021/10/23 01:48:55;;;;;;;34.60;14.82;;;;;;;8.26;87.45;102195.69;5033339;28;20056;-66
2021/10/23 01:51:22;;;;;;;30.13;15.00;;;;;;;8.23;87.94;102197.69;5033042;28;20041;-66
2021/10/23 01:53:49;;;;;;;35.95;15.18;;;;;;;8.21;87.59;102187.22;5030041;28;20044;-65
2021/10/23 01:56:15;;;;;;;33.53;15.05;;;;;;;8.26;87.85;102190.41;5053057;28;20040;-65
2021/10/23 01:58:42;;;;;;;37.17;15.05;;;;;;;8.21;87.65;102196.97;5068404;28;20041;-65
2021/10/23 02:01:09;;;;;;;36.65;16.02;;;;;;;8.16;87.95;102193.78;5034651;28;20037;-65
2021/10/23 02:03:35;;;;;;;38.38;15.43;;;;;;;8.23;88.17;102187.13;5052738;28;20076;-65
2021/10/23 02:06:08;;;;;;;31.50;15.18;;;;;;;8.28;87.24;102185.03;5052560;28;20543;-65
2021/10/23 02:08:35;;;;;;;35.00;14.50;;;;;;;8.23;87.80;102181.84;5050809;28;20033;-65
2021/10/23 02:11:02;;;;;;;34.88;16.27;;;;;;;8.30;87.56;102183.13;5052587;28;20056;-65
2021/10/23 02:13:29;;;;;;;32.80;14.68;;;;;;;8.55;86.27;102181.47;5052832;28;20048;-65
2021/10/23 02:15:55;;;;;;;33.28;14.98;;;;;;;8.40;86.54;102178.91;5052124;28;20045;-65
2021/10/23 02:18:22;;;;;;;34.15;15.57;;;;;;;8.30;87.72;102171.72;5052768;28;20051;-65
2021/10/23 02:20:49;;;;;;;32.13;15.07;;;;;;;8.21;87.30;102167.88;5034623;28;20037;-66
2021/10/23 02:23:16;;;;;;;31.02;15.70;;;;;;;8.22;87.41;102170.44;5052364;28;20056;-66
2021/10/23 02:25:42;;;;;;;37.45;15.55;;;;;;;8.22;87.55;102169.56;5054265;28;20037;-65
2021/10/23 02:28:09;;;;;;;35.85;16.25;;;;;;;8.18;87.34;102165.44;5051294;28;20083;-65
2021/10/23 02:30:36;;;;;;;38.00;17.10;;;;;;;8.10;87.86;102165.13;5052179;28;20041;-66
2021/10/23 02:33:03;;;;;;;38.28;15.80;;;;;;;8.12;88.11;102168.50;5051698;28;20390;-67
2021/10/23 02:35:30;;;;;;;31.67;16.88;;;;;;;7.97;87.86;102171.22;5017097;28;20079;-65
2021/10/23 02:37:56;;;;;;;36.15;16.88;;;;;;;8.15;87.80;102185.00;5034529;28;20124;-65
2021/10/23 02:40:24;;;;;;;31.42;16.13;;;;;;;8.15;88.40;102185.00;5052282;28;20486;-66
2021/10/23 02:42:50;;;;;;;35.90;17.05;;;;;;;8.21;87.94;102178.47;5051552;28;20040;-66
2021/10/23 02:45:17;;;;;;;37.13;17.30;;;;;;;8.21;88.07;102171.38;5052093;28;20102;-66
2021/10/23 02:47:44;;;;;;;36.95;17.60;;;;;;;8.07;88.54;102179.38;5018199;28;20040;-66
2021/10/23 02:50:11;;;;;;;32.83;17.83;;;;;;;8.27;88.01;102175.38;5050879;28;20040;-66
2021/10/23 02:52:37;;;;;;;42.25;16.92;;;;;;;8.22;87.89;102181.00;5046601;28;20049;-66
2021/10/23 02:55:05;;;;;;;38.03;18.50;;;;;;;8.33;87.57;102187.34;5032695;28;20071;-66
2021/10/23 02:57:32;;;;;;;37.30;17.58;;;;;;;8.25;87.81;102179.94;5014285;28;20047;-66
2021/10/23 02:59:59;;;;;;;38.67;17.27;;;;;;;8.30;87.98;102179.63;5032602;28;20041;-66
2021/10/23 03:02:26;;;;;;;37.65;17.17;;;;;;;8.21;87.79;102192.50;5014765;28;20095;-66
2021/10/23 03:04:52;;;;;;;40.92;17.92;;;;;;;8.16;88.29;102193.78;5031429;28;20057;-66
2021/10/23 03:07:19;;;;;;;38.53;18.35;;;;;;;8.22;88.60;102202.16;5012985;28;20068;-65
2021/10/23 03:09:46;;;;;;;36.63;18.92;;;;;;;8.12;88.64;102197.59;5032432;28;20485;-66
2021/10/23 03:12:13;;;;;;;38.45;19.02;;;;;;;8.14;88.95;102214.19;5031057;28;20063;-66
2021/10/23 03:14:39;;;;;;;34.78;18.15;;;;;;;8.09;88.79;102225.03;5032352;28;20433;-65
2021/10/23 03:17:06;;;;;;;38.65;18.73;;;;;;;8.13;88.88;102223.91;5032393;28;20042;-65
2021/10/23 03:19:33;;;;;;;46.60;20.45;;;;;;;8.12;89.32;102216.91;5032325;28;20497;-66
2021/10/23 03:22:02;;;;;;;42.90;18.08;;;;;;;8.32;88.08;102207.66;5032028;28;20049;-65
2021/10/23 03:24:29;;;;;;;41.75;20.23;;;;;;;8.31;88.05;102213.03;5031966;28;20042;-66
2021/10/23 03:26:55;;;;;;;37.55;18.13;;;;;;;8.15;88.34;102222.00;5032181;28;20076;-65
2021/10/23 03:29:22;;;;;;;39.70;19.25;;;;;;;8.04;88.44;102225.38;5032088;28;20045;-65
2021/10/23 03:31:49;;;;;;;37.78;18.67;;;;;;;8.04;88.69;102238.59;5032301;28;20099;-66
2021/10/23 03:34:16;;;;;;;35.28;18.60;;;;;;;7.99;88.45;102226.63;5012603;28;20045;-65
2021/10/23 03:36:43;;;;;;;35.53;18.27;;;;;;;7.94;88.14;102231.34;5047342;28;20049;-65
2021/10/23 03:39:09;;;;;;;35.60;18.65;;;;;;;7.93;88.01;102229.66;5031762;28;20037;-66
2021/10/23 03:41:37;;;;;;;38.08;17.88;;;;;;;7.86;87.77;102243.28;5031156;28;20103;-65
2021/10/23 03:44:06;;;;;;;40.47;18.67;;;;;;;7.78;88.16;102252.63;5024182;28;20083;-65
2021/10/23 03:46:32;;;;;;;39.30;18.83;;;;;;;7.77;87.69;102250.97;5027863;28;20113;-66
2021/10/23 03:49:00;;;;;;;36.70;19.13;;;;;;;7.69;87.71;102248.78;5031482;28;20092;-65
2021/10/23 03:51:26;;;;;;;36.58;19.55;;;;;;;7.67;88.09;102255.97;5030506;28;20137;-65
2021/10/23 03:53:53;;;;;;;38.15;19.08;;;;;;;7.63;88.30;102254.47;5031462;28;20115;-65
2021/10/23 03:56:20;;;;;;;45.47;20.48;;;;;;;7.56;88.35;102248.72;5014325;28;20065;-65
2021/10/23 03:58:47;;;;;;;38.97;19.58;;;;;;;7.60;88.43;102254.66;5014270;28;20464;-65
2021/10/23 04:01:13;;;;;;;44.88;19.52;;;;;;;7.59;88.46;102248.53;5033738;28;20045;-66
2021/10/23 04:03:40;;;;;;;37.95;19.17;;;;;;;7.57;88.45;102236.38;5035878;28;20042;-66
2021/10/23 04:06:07;;;;;;;37.00;18.60;;;;;;;7.58;88.63;102230.97;5017613;28;20425;-66
2021/10/23 04:08:34;;;;;;;42.08;19.98;;;;;;;7.54;88.85;102233.94;5033691;28;20073;-65
2021/10/23 04:11:01;;;;;;;40.83;20.70;;;;;;;7.57;88.91;102226.66;5035254;28;20128;-65
2021/10/23 04:13:27;;;;;;;45.42;20.48;;;;;;;7.60;89.25;102233.53;5035247;28;20107;-66
2021/10/23 04:15:54;;;;;;;43.60;21.48;;;;;;;7.61;89.90;102233.44;5017698;28;20048;-66
2021/10/23 04:18:21;;;;;;;45.00;21.42;;;;;;;7.78;88.72;102237.63;5023740;28;20042;-65
2021/10/23 04:20:47;;;;;;;41.25;21.05;;;;;;;7.79;88.92;102241.97;5031038;28;20045;-66
2021/10/23 04:23:14;;;;;;;50.22;20.48;;;;;;;7.71;88.53;102241.59;5017058;28;20045;-65
2021/10/23 04:25:41;;;;;;;43.80;20.70;;;;;;;7.75;87.83;102251.06;5034387;28;20057;-66
2021/10/23 04:28:08;;;;;;;41.33;21.15;;;;;;;7.44;88.80;102258.28;5016953;28;20053;-66
2021/10/23 04:30:34;;;;;;;42.60;21.25;;;;;;;7.56;88.20;102266.38;5036581;28;20522;-65
2021/10/23 04:33:01;;;;;;;39.58;21.02;;;;;;;7.57;89.42;102257.50;5034752;28;20045;-65
2021/10/23 04:35:28;;;;;;;48.97;21.35;;;;;;;7.67;88.91;102258.59;5034633;28;20481;-66
2021/10/23 04:37:54;;;;;;;45.20;21.85;;;;;;;7.64;88.84;102259.66;5032927;28;20045;-66
2021/10/23 04:40:21;;;;;;;46.35;23.60;;;;;;;7.62;89.17;102268.59;5034236;28;20041;-65
2021/10/23 04:42:48;;;;;;;41.40;22.63;;;;;;;7.62;89.20;102260.69;5016718;28;20056;-65
2021/10/23 04:45:15;;;;;;;42.55;21.48;;;;;;;7.65;88.75;102260.50;5017111;28;20038;-65
2021/10/23 04:47:41;;;;;;;43.22;21.52;;;;;;;7.62;87.81;102258.91;5034160;28;20046;-66
2021/10/23 04:50:08;;;;;;;42.17;20.30;;;;;;;7.59;87.88;102260.91;5033842;28;20034;-66
2021/10/23 04:52:35;;;;;;;40.30;21.00;;;;;;;7.51;87.45;102248.16;5021249;28;20056;-66
2021/10/23 04:55:02;;;;;;;45.50;21.40;;;;;;;7.52;87.59;102247.22;5053953;28;20131;-65
2021/10/23 04:57:29;;;;;;;46.90;22.23;;;;;;;7.41;88.93;102257.63;5054185;28;20041;-65
2021/10/23 04:59:55;;;;;;;50.75;23.38;;;;;;;7.38;88.08;102257.81;5054150;28;20041;-66
2021/10/23 05:02:22;;;;;;;46.50;22.13;;;;;;;7.30;88.22;102248.56;5053481;28;20045;-65
2021/10/23 05:04:49;;;;;;;45.83;21.67;;;;;;;7.28;88.13;102258.38;5053641;28;20048;-66
2021/10/23 05:07:15;;;;;;;42.97;21.30;;;;;;;7.27;87.80;102258.47;5052077;28;20045;-65
2021/10/23 05:09:43;;;;;;;46.63;23.17;;;;;;;7.18;88.01;102261.69;5053815;28;20048;-65
2021/10/23 05:12:09;;;;;;;40.63;22.23;;;;;;;7.05;88.84;102265.06;5053819;28;20436;-66
2021/10/23 05:14:36;;;;;;;47.38;22.15;;;;;;;7.07;88.78;102259.72;5053604;28;20408;-66
2021/10/23 05:17:03;;;;;;;45.72;22.45;;;;;;;7.07;88.63;102260.53;5053308;28;20037;-66
2021/10/23 05:19:30;;;;;;;47.58;21.80;;;;;;;7.04;87.61;102266.03;5053785;28;20047;-65
2021/10/23 05:21:57;;;;;;;46.58;22.42;;;;;;;6.98;88.35;102271.66;5053276;28;20485;-65
2021/10/23 05:24:23;;;;;;;44.38;23.27;;;;;;;6.95;88.24;102261.31;5053386;28;20041;-65
2021/10/23 05:26:50;;;;;;;44.45;23.67;;;;;;;6.91;87.80;102268.56;5053650;28;20041;-65
2021/10/23 05:29:17;;;;;;;44.50;21.88;;;;;;;6.90;87.63;102266.84;5035606;28;20044;-65
2021/10/23 05:31:44;;;;;;;42.85;21.58;;;;;;;6.89;87.75;102269.59;5053274;28;20064;-66
2021/10/23 05:34:10;;;;;;;45.70;22.60;;;;;;;6.82;87.77;102271.75;5051312;28;20041;-65
2021/10/23 05:36:37;;;;;;;44.13;23.05;;;;;;;6.65;88.94;102271.91;5035295;28;20048;-65
2021/10/23 05:39:04;;;;;;;42.22;21.15;;;;;;;6.72;87.73;102278.53;5053232;28;20045;-65
2021/10/23 05:41:30;;;;;;;45.22;22.77;;;;;;;6.66;87.89;102276.25;5053042;28;20067;-66
2021/10/23 05:43:59;;;;;;;45.33;22.23;;;;;;;6.61;87.54;102283.59;5035135;28;20090;-66
2021/10/23 05:46:25;;;;;;;45.33;22.23;;;;;;;6.63;87.51;102271.16;5053140;28;20083;-65
2021/10/23 05:48:52;;;;;;;41.05;21.65;;;;;;;6.59;88.57;102274.94;5053024;28;20131;-66
2021/10/23 05:51:19;;;;;;;44.30;22.27;;;;;;;6.60;88.10;102279.25;5052624;28;20087;-65
2021/10/23 05:53:46;;;;;;;42.33;22.52;;;;;;;6.56;87.86;102278.56;5038180;28;20127;-65
2021/10/23 05:56:12;;;;;;;42.45;21.65;;;;;;;6.50;88.10;102285.06;5032979;28;20050;-66
2021/10/23 05:58:39;;;;;;;44.40;22.08;;;;;;;6.53;87.83;102287.53;5032570;28;20493;-65
2021/10/23 06:01:07;;;;;;;48.65;22.65;;;;;;;6.54;87.87;102296.28;5033063;28;20057;-65
2021/10/23 06:03:37;;;;;;;44.53;22.35;;;;;;;6.45;87.77;102299.44;5014725;28;20410;-65
2021/10/23 06:06:05;;;;;;;43.47;22.27;;;;;;;6.43;87.79;102296.91;5032650;28;20099;-65
2021/10/23 06:08:32;;;;;;;51.97;22.58;;;;;;;6.43;87.83;102307.44;5031174;28;20383;-65
2021/10/23 06:10:59;;;;;;;47.83;21.98;;;;;;;6.41;87.82;102308.47;5032585;28;20045;-65
2021/10/23 06:13:26;;;;;;;61.08;22.45;;;;;;;6.34;88.18;102313.25;5032147;28;20060;-65
2021/10/23 06:15:53;;;;;;;45.10;22.55;;;;;;;6.36;87.72;102314.00;5015406;28;20037;-65
2021/10/23 06:18:20;;;;;;;43.30;22.15;;;;;;;6.35;87.89;102312.31;5032651;28;20045;-65
2021/10/23 06:20:47;;;;;;;44.10;21.60;;;;;;;6.40;87.34;102320.78;5032059;28;20046;-65
2021/10/23 06:23:14;;;;;;;44.45;23.30;;;;;;;6.39;87.28;102316.47;5014840;28;20412;-65
2021/10/23 06:25:41;;;;;;;44.58;22.83;;;;;;;6.41;87.36;102327.78;5032014;28;20444;-65
2021/10/23 06:28:08;;;;;;;43.88;22.15;;;;;;;6.39;88.17;102324.38;5031493;28;20049;-65
2021/10/23 06:30:35;;;;;;;47.38;23.67;;;;;;;6.41;88.18;102319.88;5032405;28;20107;-65
2021/10/23 06:33:01;;;;;;;51.30;22.42;;;;;;;6.34;88.26;102323.78;5032173;28;20048;-65
2021/10/23 06:35:30;;;;;;;49.67;23.42;;;;;;;6.35;88.55;102325.50;5030777;28;20045;-65
2021/10/23 06:37:56;;;;;;;46.90;24.63;;;;;;;6.38;88.52;102329.72;5032787;28;20038;-65
2021/10/23 06:40:24;;;;;;;52.38;22.33;;;;;;;6.40;88.00;102338.41;5047273;28;20049;-65
2021/10/23 06:42:51;;;;;;;51.08;24.40;;;;;;;6.37;88.73;102341.19;5031877;28;20423;-65
2021/10/23 06:45:18;;;;;;;49.80;23.83;;;;;;;6.42;88.77;102342.66;5014797;28;20041;-65
2021/10/23 06:47:44;;;;;;;47.80;22.77;;;;;;;6.42;88.91;102344.44;5032202;28;20036;-65
2021/10/23 06:50:13;;;;;;;44.72;22.95;;;;;;;6.43;88.63;102352.25;5031911;28;20486;-65
2021/10/23 06:52:40;;;;;;;48.67;23.65;;;;;;;6.48;88.74;102358.13;5031792;28;20052;-65
2021/10/23 06:55:07;;;;;;;53.53;24.63;;;;;;;6.49;88.52;102367.75;5016102;28;20042;-65
2021/10/23 06:57:34;;;;;;;45.88;22.48;;;;;;;6.57;88.20;102367.28;5032073;28;20052;-65
2021/10/23 07:00:01;;;;;;;45.00;23.08;;;;;;;6.58;88.29;102370.78;5032078;28;20517;-65
2021/10/23 07:02:28;;;;;;;49.80;24.83;;;;;;;6.60;88.25;102384.72;5031675;28;20505;-65
2021/10/23 07:04:55;;;;;;;51.72;25.08;;;;;;;6.65;88.28;102375.59;5031859;28;20041;-65
2021/10/23 07:07:23;;;;;;;48.83;24.15;;;;;;;6.62;89.42;102383.72;5030138;28;20068;-65
2021/10/23 07:09:49;;;;;;;49.30;24.65;;;;;;;6.69;88.96;102389.47;5031851;28;20046;-65
2021/10/23 07:12:16;;;;;;;51.50;25.00;;;;;;;6.76;88.76;102388.16;5031841;28;20041;-65
2021/10/23 07:14:43;;;;;;;55.13;24.30;;;;;;;6.82;89.35;102401.03;5031908;28;20053;-65
2021/10/23 07:17:10;;;;;;;49.70;24.90;;;;;;;6.91;89.30;102404.88;5031783;28;20084;-65
2021/10/23 07:19:36;;;;;;;51.78;24.52;;;;;;;7.08;89.67;102409.19;5031782;28;20054;-65
2021/10/23 07:22:03;;;;;;;49.35;25.10;;;;;;;7.24;89.66;102410.00;5031424;28;20049;-65
2021/10/23 07:24:30;;;;;;;56.42;26.23;;;;;;;7.40;90.03;102416.97;5031891;28;20548;-65
2021/10/23 07:26:57;;;;;;;59.92;25.85;;;;;;;7.59;89.83;102422.84;5030785;28;20034;-65
2021/10/23 07:29:23;;;;;;;49.08;25.50;;;;;;;7.76;89.26;102424.44;5031765;28;20112;-65
2021/10/23 07:31:50;;;;;;;47.83;25.30;;;;;;;8.04;88.07;102425.38;5031931;28;20076;-65
2021/10/23 07:34:17;;;;;;;49.50;26.55;;;;;;;7.99;88.48;102427.47;5030211;28;20042;-65
2021/10/23 07:36:44;;;;;;;50.03;25.13;;;;;;;7.97;88.92;102437.28;5014785;28;20045;-65
2021/10/23 07:39:10;;;;;;;53.03;24.27;;;;;;;8.04;88.43;102442.09;5017945;28;20045;-65
2021/10/23 07:41:38;;;;;;;48.45;24.88;;;;;;;8.17;88.24;102450.09;5035586;28;20115;-65
2021/10/23 07:44:07;;;;;;;53.30;24.88;;;;;;;8.32;87.32;102450.06;5017738;28;20401;-65
2021/10/23 07:46:34;;;;;;;49.33;24.73;;;;;;;8.47;86.94;102448.28;5035244;28;20042;-65
2021/10/23 07:49:02;;;;;;;55.40;26.33;;;;;;;8.51;86.84;102455.91;5034724;28;20052;-65
2021/10/23 07:51:30;;;;;;;49.80;24.88;;;;;;;8.64;87.11;102456.81;5035152;28;20067;-65
2021/10/23 07:53:57;;;;;;;55.90;24.40;;;;;;;8.64;86.47;102467.41;5033387;28;20052;-65
2021/10/23 07:56:24;;;;;;;48.75;24.88;;;;;;;8.60;86.88;102457.09;5055591;28;20420;-65
2021/10/23 07:58:50;;;;;;;53.85;25.60;;;;;;;8.69;86.76;102456.50;5055408;28;20033;-65
2021/10/23 08:01:17;;;;;;;55.08;24.95;;;;;;;8.86;86.38;102458.06;5037644;28;20041;-65
2021/10/23 08:03:44;;;;;;;53.20;25.40;;;;;;;8.93;86.06;102464.66;5054951;28;20211;-65
2021/10/23 08:06:11;;;;;;;55.72;25.65;;;;;;;8.90;86.47;102471.97;5070708;28;20520;-65
2021/10/23 08:08:37;;;;;;;52.13;24.83;;;;;;;9.07;85.37;102470.84;5053362;28;20086;-65
2021/10/23 08:11:06;;;;;;;52.55;25.42;;;;;;;8.99;85.75;102474.84;5055373;28;20041;-65
2021/10/23 08:13:33;;;;;;;48.00;24.80;;;;;;;8.94;86.22;102474.28;5021115;28;20442;-65
2021/10/23 08:16:01;;;;;;;55.30;24.90;;;;;;;9.13;85.93;102475.72;5055123;28;20382;-65
2021/10/23 08:18:28;;;;;;;55.53;25.67;;;;;;;9.28;85.10;102473.81;5049791;28;20041;-66
2021/10/23 08:20:55;;;;;;;48.38;24.48;;;;;;;9.49;83.89;102484.78;5053995;28;20116;-65
2021/10/23 08:23:23;;;;;;;46.65;24.40;;;;;;;9.50;84.54;102481.19;5054652;28;20048;-65
2021/10/23 08:25:52;;;;;;;55.35;24.65;;;;;;;9.70;84.61;102483.31;5036635;28;20056;-65
2021/10/23 08:28:19;;;;;;;45.67;23.58;;;;;;;9.77;83.19;102484.59;5054567;28;20041;-65
2021/10/23 08:30:46;;;;;;;49.65;24.63;;;;;;;9.64;83.19;102490.81;5061467;28;20075;-64
2021/10/23 08:33:13;;;;;;;51.85;24.58;;;;;;;9.45;84.29;102494.75;5034836;28;20033;-65
2021/10/23 08:35:40;;;;;;;55.15;24.52;;;;;;;9.43;84.43;102496.66;5036714;28;20413;-65
2021/10/23 08:38:06;;;;;;;53.50;24.95;;;;;;;9.57;83.99;102499.22;5054318;28;20037;-65
2021/10/23 08:40:33;;;;;;;59.75;25.67;;;;;;;9.64;84.02;102498.78;5020177;28;20045;-65
2021/10/23 08:43:02;;;;;;;46.92;24.20;;;;;;;9.78;82.70;102486.28;5054620;28;20045;-65
2021/10/23 08:45:29;;;;;;;45.40;23.35;;;;;;;9.92;82.32;102495.09;5036463;28;20040;-65
2021/10/23 08:47:58;;;;;;;55.13;23.98;;;;;;;9.85;82.33;102488.50;5035895;28;20037;-65
2021/10/23 08:50:25;;;;;;;44.97;23.48;;;;;;;9.90;82.07;102497.00;5036800;28;20033;-65
2021/10/23 08:52:56;;;;;;;49.03;22.98;;;;;;;10.09;81.63;102501.84;5036008;28;20049;-65
2021/10/23 08:55:23;;;;;;;50.13;23.23;;;;;;;10.32;80.83;102508.22;5054216;28;20124;-65
2021/10/23 08:57:50;;;;;;;45.15;21.75;;;;;;;10.21;80.51;102505.47;5053687;28;20040;-65
2021/10/23 09:00:17;;;;;;;44.95;22.30;;;;;;;10.20;81.41;102512.53;5036067;28;20076;-65
2021/10/23 09:02:44;;;;;;;43.13;22.17;;;;;;;10.33;80.37;102512.56;5053585;28;20044;-65
2021/10/23 09:05:11;;;;;;;49.70;21.85;;;;;;;10.32;81.14;102509.06;5054036;28;20041;-65
2021/10/23 09:07:47;;;;;;;46.78;21.50;;;;;;;10.47;80.08;102512.41;5052153;28;20063;-65
2021/10/23 09:10:25;;;;;;;42.83;21.95;;;;;;;10.47;79.74;102519.53;5035803;28;20040;-65
2021/10/23 09:13:07;;;;;;;47.63;22.58;;;;;;;10.16;81.11;102526.97;5036002;28;20037;-65
2021/10/23 09:15:37;;;;;;;44.50;23.10;;;;;;;10.43;80.40;102531.34;5035929;28;20048;-65
2021/10/23 09:18:04;;;;;;;42.53;21.95;;;;;;;10.56;80.21;102534.78;5053534;28;20045;-65
2021/10/23 09:20:40;;;;;;;47.85;23.58;;;;;;;10.60;80.41;102530.94;5053667;28;20041;-65
2021/10/23 09:23:17;;;;;;;70.47;37.97;;;;;;;10.69;79.73;102526.78;5053347;28;20167;-65
2021/10/23 09:25:46;;;;;;;75.65;41.03;;;;;;;10.75;79.62;102529.88;5053563;28;20053;-65
2021/10/23 09:28:15;;;;;;;79.05;41.03;;;;;;;10.63;79.95;102536.06;5019353;28;20052;-65
2021/10/23 09:30:45;;;;;;;82.13;46.63;;;;;;;10.81;80.12;102527.72;5053190;28;20051;-65
2021/10/23 09:33:18;;;;;;;73.63;42.20;;;;;;;10.92;78.70;102528.63;5019318;28;20045;-66
2021/10/23 09:35:49;;;;;;;69.38;39.10;;;;;;;11.05;78.49;102530.38;5053230;28;20094;-65
2021/10/23 09:38:18;;;;;;;90.13;42.08;;;;;;;11.20;78.06;102528.38;5053108;28;20041;-65
2021/10/23 09:40:47;;;;;;;81.43;44.10;;;;;;;11.41;77.89;102537.41;5053137;28;20128;-65
2021/10/23 09:43:17;;;;;;;79.25;42.72;;;;;;;11.05;78.20;102533.03;5052776;28;20126;-65
2021/10/23 09:46:04;;;;;;;77.80;41.53;;;;;;;11.19;78.38;102540.81;5052672;28;20060;-66
2021/10/23 09:48:41;;;;;;;70.28;36.60;;;;;;;11.13;78.24;102534.16;5052757;28;20102;-65
2021/10/23 09:51:12;;;;;;;60.08;30.23;;;;;;;11.49;75.69;102540.31;5035282;28;20059;-65
2021/10/23 09:53:40;;;;;;;66.80;33.22;;;;;;;11.57;76.30;102541.53;5034826;28;20053;-65
2021/10/23 09:56:08;;;;;;;60.63;29.10;;;;;;;11.45;76.61;102546.00;5034873;28;20456;-62
2021/10/23 09:58:35;;;;;;;55.83;29.88;;;;;;;11.83;73.97;102539.56;5052123;28;20037;-62
2021/10/23 10:01:02;;;;;;;53.83;27.75;;;;;;;11.99;72.54;102542.75;5035348;28;20049;-61
2021/10/23 10:03:29;;;;;;;64.80;28.67;;;;;;;12.01;73.37;102545.31;5052599;28;20068;-65
2021/10/23 10:05:57;;;;;;;54.40;27.40;;;;;;;11.91;73.98;102545.16;5052653;28;20037;-65
2021/10/23 10:08:25;;;;;;;52.60;28.67;;;;;;;11.68;75.67;102560.22;5050814;28;20055;-65
2021/10/23 10:10:54;;;;;;;56.13;29.30;;;;;;;11.78;75.06;102568.31;5051514;28;20103;-65
2021/10/23 10:13:24;;;;;;;58.17;27.60;;;;;;;11.79;76.12;102572.66;5051912;28;20047;-65
2021/10/23 10:15:53;;;;;;;54.25;26.33;;;;;;;11.69;76.08;102569.84;5052209;28;20568;-65
2021/10/23 10:18:22;;;;;;;55.47;26.00;;;;;;;11.83;75.39;102563.50;5049597;28;20044;-65
2021/10/23 10:20:53;;;;;;;53.28;26.35;;;;;;;11.88;75.63;102564.00;5052596;28;20052;-64
2021/10/23 10:23:32;;;;;;;53.83;26.75;;;;;;;11.85;75.04;102570.38;5058740;28;20052;-64
2021/10/23 10:29:17;;;;;;;47.30;21.85;;;;;;;11.82;73.05;102567.94;5049594;28;21126;-66
2021/10/23 10:37:45;;;;;;;53.35;25.75;;;;;;;11.55;75.30;102570.06;5108447;27;20133;-65
2021/10/23 10:40:55;;;;;;;49.33;27.42;;;;;;;11.55;74.51;102576.25;5058062;28;20048;-64
2021/10/23 10:43:20;;;;;;;56.63;28.08;;;;;;;11.59;75.15;102575.03;5071508;28;20052;-65
2021/10/23 10:45:55;;;;;;;53.83;28.13;;;;;;;11.72;73.88;102573.13;5071386;28;20036;-65
2021/10/23 10:54:02;;;;;;;54.28;27.23;;;;;;;11.91;74.09;102571.75;5130820;27;20208;-66
2021/10/23 10:56:43;;;;;;;48.42;24.90;;;;;;;11.97;72.01;102565.97;5128914;28;20112;-66
2021/10/23 10:59:09;;;;;;;53.22;26.65;;;;;;;11.94;72.71;102566.22;5130176;28;20039;-65
2021/10/23 11:01:36;;;;;;;46.25;25.48;;;;;;;12.01;72.17;102569.25;5130579;28;20122;-65
2021/10/23 11:04:07;;;;;;;43.75;22.48;;;;;;;12.16;71.76;102561.88;5092169;28;20122;-65
2021/10/23 11:17:14;;;;;;;36.78;15.50;;;;;;;12.53;69.21;102550.97;5110657;27;20328;-65
2021/10/23 11:19:52;;;;;;;32.47;14.90;;;;;;;12.56;70.81;102554.25;5098608;28;20040;-64
2021/10/23 11:22:23;;;;;;;39.38;15.80;;;;;;;12.70;70.15;102552.28;5089736;28;20131;-65
2021/10/23 11:25:03;;;;;;;30.47;12.63;;;;;;;12.73;68.04;102552.88;5089449;28;20123;-64
2021/10/23 11:27:49;;;;;;;36.80;12.18;;;;;;;12.76;69.54;102554.47;5072530;28;20300;-64
2021/10/23 11:30:33;;;;;;;28.73;11.80;;;;;;;12.81;70.08;102558.44;5072171;28;20056;-65
2021/10/23 11:33:02;;;;;;;27.10;10.57;;;;;;;12.98;66.80;102551.72;5089417;28;20570;-64
2021/10/23 11:35:31;;;;;;;27.00;10.60;;;;;;;12.97;66.51;102558.03;5088440;28;20040;-64
2021/10/23 11:37:58;;;;;;;27.45;8.93;;;;;;;12.92;65.15;102557.56;5089629;28;20131;-64
2021/10/23 11:40:26;;;;;;;24.55;9.60;;;;;;;12.75;67.60;102561.59;5089109;28;20043;-65
2021/10/23 11:42:53;;;;;;;24.42;8.88;;;;;;;12.67;66.07;102564.03;5089297;28;20382;-65
2021/10/23 11:45:23;;;;;;;29.85;7.90;;;;;;;12.74;65.44;102559.06;5089448;28;20036;-64